Aviation Digital Data Service (ADDS)

Output produced by METARs form (1018 UTC 29 January 2015)
found at http://www.aviationweather.gov/adds/metars/
 
KLGA 290852Z 2909/3006 02005KT P6SM SKC 
     FM291400 VRB04KT P6SM SKC 
     FM291800 14006KT P6SM SCT025 BKN120 
     FM292300 15010KT P6SM SCT025 BKN080 
     FM300200 19010G16KT P6SM BKN025 BKN050 
     FM300400 19008KT 3SM -SN BKN015